Anadarko, Texas
Current Conditions -  °F | °C
As of 3:15 AM on Monday 20 Oct 2014 (Local Time) from KRFI Reporting Station
Clear Clear  
Wind Chill: 11°   Ceiling: Unl
Heat Index: 11°   Visibility: 10mi
Dew Point: 11°   Wind: 0mph
Humidity: 98%   Direction: NA
Pressure: 30.07"   Gusts: NA
Location:  31.9447°N, 94.855°W
Report Text: KRFI 200815Z AUTO 00000KT 10SM CLR 11/11 A3007 RMK AO2 T01100107
Loading
Personal Weather Stations






























Interactive Weather Map
Tropical Storm Tracking
New forecast layout! Learn more

10-Day Weather Forecast

Advertisements
Track Severe Weather on mobile